Time;durP1;ratioP1;P1;durP2;ratioP2;P2;SDS_P1;SDS_P2;PMS_P1;PMS_P2;Temp;Humidity;BMP_temperature;BMP_pressure;BME280_temperature;BME280_humidity;BME280_pressure;Samples;Min_cycle;Max_cycle;Signal;HPM_P1;HPM_P2
2023/01/26 00:03:29;;;;;;;23.77;9.77;;;;;;;3.43;73.04;101090.09;10217403;28;20118;-86
2023/01/26 00:08:36;;;;;;;20.10;9.10;;;;;;;3.51;72.48;101086.88;10209203;28;20531;-87
2023/01/26 00:13:38;;;;;;;23.27;8.23;;;;;;;3.48;72.66;101079.97;10202258;28;20077;-87
2023/01/26 00:18:41;;;;;;;23.33;9.88;;;;;;;3.52;72.35;101068.16;10209662;28;20057;-87
2023/01/26 00:23:43;;;;;;;23.15;9.30;;;;;;;3.58;72.37;101059.72;10208320;28;20054;-87
2023/01/26 00:28:53;;;;;;;22.75;8.57;;;;;;;3.60;72.58;101059.63;10229207;28;20051;-87
2023/01/26 00:33:58;;;;;;;22.02;8.68;;;;;;;3.65;72.27;101065.44;10217558;28;20052;-87
2023/01/26 00:39:01;;;;;;;16.30;7.32;;;;;;;3.62;72.51;101075.47;10214626;28;20083;-87
2023/01/26 00:44:03;;;;;;;18.58;8.48;;;;;;;3.56;72.34;101064.31;10213018;28;20047;-88
2023/01/26 00:49:08;;;;;;;28.10;8.93;;;;;;;3.44;72.72;101061.72;10215506;28;20146;-87
2023/01/26 00:54:09;;;;;;;20.65;8.93;;;;;;;3.36;73.01;101063.13;10197741;28;20050;-87
2023/01/26 00:59:11;;;;;;;20.25;9.25;;;;;;;3.39;72.58;101064.69;10209494;28;20537;-87
2023/01/26 01:04:13;;;;;;;23.13;9.00;;;;;;;3.36;72.85;101062.28;10197601;28;20055;-89
2023/01/26 01:09:17;;;;;;;22.80;8.98;;;;;;;3.23;73.09;101066.78;10201595;28;20121;-87
2023/01/26 01:14:19;;;;;;;16.77;7.25;;;;;;;3.08;73.28;101063.41;10199587;28;20099;-87
2023/01/26 01:19:20;;;;;;;20.95;8.07;;;;;;;3.17;73.34;101078.69;10205990;28;20062;-87
2023/01/26 01:24:22;;;;;;;20.55;8.30;;;;;;;3.13;73.30;101064.78;10202315;28;20171;-87
2023/01/26 01:29:23;;;;;;;19.98;7.85;;;;;;;3.15;73.23;101072.63;10198250;28;21064;-87
2023/01/26 01:34:25;;;;;;;19.45;8.25;;;;;;;3.06;73.00;101067.97;10208500;28;20067;-87
2023/01/26 01:39:27;;;;;;;15.05;6.28;;;;;;;3.11;73.23;101066.69;10226502;28;20111;-86
2023/01/26 01:44:28;;;;;;;15.85;6.45;;;;;;;3.01;73.62;101075.44;10215468;28;20043;-87
2023/01/26 01:49:42;;;;;;;14.40;5.28;;;;;;;2.88;73.40;101073.63;10214501;28;20055;-86
2023/01/26 01:54:52;;;;;;;15.65;6.35;;;;;;;2.83;73.72;101059.84;10211623;28;20088;-86
2023/01/26 02:00:21;;;;;;;14.10;5.82;;;;;;;2.75;73.88;101056.91;10211465;28;20087;-86
2023/01/26 02:05:30;;;;;;;14.65;5.72;;;;;;;2.71;73.45;101045.63;10199015;28;20051;-86
2023/01/26 02:10:32;;;;;;;8.65;2.97;;;;;;;2.77;73.58;101041.72;10217360;28;20063;-86
2023/01/26 02:15:33;;;;;;;6.47;2.60;;;;;;;2.74;73.81;101055.19;10231289;28;20059;-86
2023/01/26 02:20:43;;;;;;;8.48;3.42;;;;;;;2.74;73.16;101042.75;10220598;28;20055;-86
2023/01/26 02:25:48;;;;;;;6.13;2.53;;;;;;;2.73;73.52;101037.56;10200142;28;20055;-86
2023/01/26 02:30:51;;;;;;;8.60;3.17;;;;;;;2.77;72.96;101028.44;10216145;28;20087;-86
2023/01/26 02:35:53;;;;;;;4.47;1.85;;;;;;;2.78;72.83;101028.34;10219529;28;20352;-86
2023/01/26 02:40:59;;;;;;;8.02;2.80;;;;;;;2.75;72.92;101015.25;10220915;28;20055;-86
2023/01/26 02:46:00;;;;;;;7.22;2.78;;;;;;;2.87;72.82;101016.19;10201101;28;20495;-86
2023/01/26 02:51:03;;;;;;;7.38;2.47;;;;;;;2.92;72.73;100999.91;10215487;28;20047;-86
2023/01/26 02:56:05;;;;;;;4.45;1.85;;;;;;;3.00;71.97;101002.03;10222687;28;20055;-87
2023/01/26 03:01:06;;;;;;;5.45;2.53;;;;;;;3.04;72.35;101000.84;10223181;28;20748;-86
2023/01/26 03:06:12;;;;;;;5.03;2.28;;;;;;;3.04;71.78;100991.09;10221023;28;20043;-86
2023/01/26 03:11:13;;;;;;;4.35;2.17;;;;;;;3.02;72.27;100994.78;10201949;28;20103;-87
2023/01/26 03:16:17;;;;;;;5.05;2.33;;;;;;;3.03;72.12;100983.22;10228388;28;20083;-86
2023/01/26 03:31:59;;;;;;;6.38;2.30;;;;;;;3.08;72.01;100973.09;10221121;28;20043;-86
2023/01/26 03:37:02;;;;;;;3.17;1.50;;;;;;;3.08;71.57;100973.97;10194803;28;20063;-86
2023/01/26 03:58:07;;;;;;;4.70;2.25;;;;;;;2.91;71.60;100961.91;10225369;28;20109;-86
2023/01/26 04:08:29;;;;;;;6.03;2.70;;;;;;;2.91;71.30;100953.94;10216537;28;20060;-86
2023/01/26 04:24:13;;;;;;;8.35;2.60;;;;;;;2.86;71.53;100936.66;10206980;28;20043;-87
2023/01/26 04:29:17;;;;;;;8.00;3.10;;;;;;;2.87;71.42;100938.34;10208095;28;20557;-86
2023/01/26 04:34:18;;;;;;;13.80;3.35;;;;;;;2.91;71.27;100934.53;10213014;28;20087;-87
2023/01/26 04:39:20;;;;;;;7.15;3.22;;;;;;;2.90;71.17;100936.34;10201485;28;20043;-87
2023/01/26 04:44:21;;;;;;;9.10;3.20;;;;;;;2.87;71.22;100931.22;10195695;28;20423;-86
2023/01/26 04:49:23;;;;;;;9.63;2.83;;;;;;;2.87;71.40;100933.88;10221148;28;20157;-86
2023/01/26 04:54:25;;;;;;;6.75;2.80;;;;;;;2.92;70.77;100934.41;10206789;28;20051;-86
2023/01/26 04:59:26;;;;;;;6.70;2.88;;;;;;;2.86;70.72;100926.88;10196268;28;20047;-87
2023/01/26 05:04:28;;;;;;;6.35;2.78;;;;;;;2.75;71.17;100917.03;10193909;28;20067;-87
2023/01/26 05:09:29;;;;;;;4.60;2.30;;;;;;;2.79;70.57;100922.97;10203322;28;20407;-86
2023/01/26 05:14:31;;;;;;;7.18;2.75;;;;;;;2.72;70.90;100919.06;10193679;28;20054;-86
2023/01/26 05:19:32;;;;;;;9.32;3.75;;;;;;;2.68;71.32;100917.59;10194351;28;20055;-86
2023/01/26 05:24:34;;;;;;;13.25;4.35;;;;;;;2.66;70.92;100914.22;10203716;28;20563;-85
2023/01/26 05:29:35;;;;;;;7.75;3.97;;;;;;;2.67;70.80;100906.13;10212322;28;20059;-86
2023/01/26 05:34:37;;;;;;;10.13;4.43;;;;;;;2.70;70.58;100919.16;10215847;28;20074;-86
2023/01/26 05:39:38;;;;;;;10.10;4.13;;;;;;;2.75;71.08;100922.34;10224922;23;20142;-62
2023/01/26 05:44:39;;;;;;;8.32;4.35;;;;;;;2.78;70.73;100926.59;10237416;28;20527;-59
2023/01/26 05:49:44;;;;;;;8.85;4.20;;;;;;;2.73;70.50;100931.41;10240462;28;20055;-61
2023/01/26 05:54:46;;;;;;;9.30;4.20;;;;;;;2.75;70.66;100934.78;10232737;28;20079;-61
2023/01/26 05:59:47;;;;;;;8.98;4.03;;;;;;;2.57;70.58;100942.28;10236247;28;20050;-60
2023/01/26 06:04:49;;;;;;;7.25;3.58;;;;;;;2.56;70.46;100938.75;10235215;28;20055;-60
2023/01/26 06:09:51;;;;;;;7.45;3.50;;;;;;;2.49;70.40;100942.81;10243226;28;20047;-60
2023/01/26 06:14:52;;;;;;;8.10;3.40;;;;;;;2.37;71.00;100955.13;10244028;28;20035;-61
2023/01/26 06:19:54;;;;;;;8.90;3.97;;;;;;;2.30;70.90;100955.69;10232616;28;20566;-61
2023/01/26 06:24:55;;;;;;;9.02;3.85;;;;;;;2.31;70.22;100952.06;10241917;28;20102;-60
2023/01/26 06:29:56;;;;;;;7.30;3.60;;;;;;;2.17;70.34;100963.63;10243646;28;20043;-60
2023/01/26 06:34:58;;;;;;;8.10;4.05;;;;;;;2.18;70.97;100968.84;10227559;29;20055;-61
2023/01/26 06:39:59;;;;;;;7.07;3.45;;;;;;;2.16;70.09;100960.13;10227012;29;20048;-61
2023/01/26 06:45:00;;;;;;;7.35;3.25;;;;;;;1.90;71.01;100966.41;10224965;28;20271;-60
2023/01/26 06:50:02;;;;;;;5.93;3.00;;;;;;;1.87;70.67;100971.91;10219841;29;20050;-60
2023/01/26 06:55:04;;;;;;;7.32;2.88;;;;;;;1.74;70.00;100980.69;10228548;29;20490;-60
2023/01/26 07:00:06;;;;;;;7.35;3.33;;;;;;;1.84;69.95;100974.75;10195772;29;20055;-61
2023/01/26 07:05:07;;;;;;;8.20;4.32;;;;;;;2.01;70.26;100982.41;10212600;29;20047;-60
2023/01/26 07:10:11;;;;;;;10.23;3.63;;;;;;;2.10;69.94;100978.28;10223964;29;20055;-61
2023/01/26 07:15:13;;;;;;;5.03;2.83;;;;;;;2.00;70.05;100986.03;10216482;29;20047;-61
2023/01/26 07:20:14;;;;;;;6.70;3.40;;;;;;;2.10;69.39;100999.50;10214751;29;20062;-59
2023/01/26 07:25:16;;;;;;;6.95;3.70;;;;;;;2.17;69.21;101004.28;10214250;29;20088;-59
2023/01/26 07:30:18;;;;;;;7.75;3.20;;;;;;;2.13;69.50;100997.50;10213570;29;20055;-59
2023/01/26 07:35:19;;;;;;;6.15;3.15;;;;;;;2.22;69.32;101000.47;10214492;29;20422;-61
2023/01/26 07:40:20;;;;;;;7.30;4.35;;;;;;;2.32;68.53;101006.81;10216642;29;20094;-60
2023/01/26 07:45:22;;;;;;;8.35;3.53;;;;;;;2.23;68.58;101008.28;10232278;29;20078;-60
2023/01/26 07:50:24;;;;;;;11.70;4.82;;;;;;;2.11;68.62;101006.47;10222165;29;20060;-59
2023/01/26 07:55:26;;;;;;;9.43;4.45;;;;;;;2.21;68.89;101004.06;10216442;29;20060;-61
2023/01/26 08:00:27;;;;;;;7.95;4.25;;;;;;;2.33;68.19;101009.38;10219371;29;20063;-60
2023/01/26 08:05:30;;;;;;;5.65;3.28;;;;;;;2.15;68.57;101026.53;10215027;29;20055;-59
2023/01/26 08:10:31;;;;;;;9.60;4.20;;;;;;;2.09;69.10;101019.84;10212367;28;20056;-59
2023/01/26 08:15:33;;;;;;;7.95;3.88;;;;;;;2.11;68.86;101022.41;10229021;29;20055;-58
2023/01/26 08:20:34;;;;;;;6.53;2.95;;;;;;;2.02;69.29;101023.88;10211075;29;20079;-59
2023/01/26 08:25:36;;;;;;;6.10;3.53;;;;;;;1.93;69.16;101027.16;10226143;29;20127;-59
2023/01/26 08:30:37;;;;;;;9.68;4.47;;;;;;;1.87;68.53;101027.56;10219768;29;20250;-60
2023/01/26 08:35:38;;;;;;;9.23;4.13;;;;;;;1.86;69.28;101025.88;10228988;29;20070;-59
2023/01/26 08:40:40;;;;;;;7.18;3.45;;;;;;;1.70;68.39;101023.38;10222767;29;20090;-59
2023/01/26 08:45:41;;;;;;;9.52;5.30;;;;;;;1.97;68.70;101020.69;10222352;29;20062;-61
2023/01/26 08:50:43;;;;;;;9.30;4.55;;;;;;;2.02;68.52;101015.09;10222846;29;20079;-58
2023/01/26 08:55:44;;;;;;;11.45;4.95;;;;;;;2.02;67.96;101023.88;10218925;29;20067;-59
2023/01/26 09:00:46;;;;;;;11.93;5.55;;;;;;;2.16;68.84;101023.78;10227672;29;20059;-60
2023/01/26 09:05:47;;;;;;;10.30;4.65;;;;;;;2.32;67.78;101015.63;10225180;29;20055;-59
2023/01/26 09:10:49;;;;;;;9.02;5.15;;;;;;;2.44;68.09;101021.03;10224996;29;20059;-59
2023/01/26 09:15:51;;;;;;;9.10;5.07;;;;;;;2.42;67.86;101025.59;10221012;29;20056;-61
2023/01/26 09:20:54;;;;;;;9.25;4.82;;;;;;;2.34;67.64;101029.63;10220776;29;20074;-61
2023/01/26 09:25:55;;;;;;;9.88;4.45;;;;;;;2.35;68.28;101038.41;10216794;29;20058;-60
2023/01/26 09:31:03;;;;;;;11.43;5.07;;;;;;;2.40;67.48;101027.50;10218760;29;20062;-59
2023/01/26 09:36:07;;;;;;;9.15;4.78;;;;;;;2.56;67.14;101034.28;10227236;29;20044;-59
2023/01/26 09:41:09;;;;;;;10.82;5.32;;;;;;;2.54;67.14;101038.84;10221484;29;20763;-59
2023/01/26 09:46:24;;;;;;;12.75;5.57;;;;;;;2.41;67.48;101032.72;10224017;29;20099;-59
2023/01/26 09:51:30;;;;;;;12.93;6.53;;;;;;;2.36;67.98;101048.94;10205427;29;20055;-58
2023/01/26 09:56:32;;;;;;;9.25;5.25;;;;;;;2.16;67.86;101031.75;10220704;29;20056;-58
2023/01/26 10:01:42;;;;;;;12.40;5.13;;;;;;;2.14;68.34;101033.66;10218355;29;20500;-61
2023/01/26 10:06:44;;;;;;;8.32;5.28;;;;;;;2.40;67.29;101030.16;10213557;29;20055;-60
2023/01/26 10:11:51;;;;;;;10.45;5.60;;;;;;;2.45;66.90;101022.72;10218931;29;20110;-59
2023/01/26 10:16:53;;;;;;;11.40;4.90;;;;;;;2.41;67.46;101018.56;10228853;29;20063;-60
2023/01/26 10:21:58;;;;;;;12.52;4.82;;;;;;;2.26;67.44;101026.66;10231387;28;20058;-63
2023/01/26 10:27:00;;;;;;;10.82;5.65;;;;;;;2.31;67.26;101015.72;10225032;29;20047;-60
2023/01/26 10:32:02;;;;;;;10.38;4.65;;;;;;;2.38;67.02;101001.91;10228390;29;20102;-60
2023/01/26 10:37:19;;;;;;;10.73;5.20;;;;;;;2.24;67.28;101006.50;10215791;29;20051;-59
2023/01/26 10:42:21;;;;;;;10.03;4.43;;;;;;;2.19;67.30;101001.50;10227533;29;20114;-62
2023/01/26 10:47:23;;;;;;;8.18;4.68;;;;;;;2.38;66.63;100998.44;10217045;29;20081;-61
2023/01/26 10:52:24;;;;;;;8.55;4.18;;;;;;;2.38;66.34;101001.09;10197775;23;20099;-86
2023/01/26 10:57:28;;;;;;;8.45;4.65;;;;;;;2.48;66.02;100996.81;10138849;29;20055;-86
2023/01/26 11:02:30;;;;;;;8.55;4.85;;;;;;;2.72;65.65;100996.03;10136886;29;20060;-87
2023/01/26 11:07:36;;;;;;;9.00;4.10;;;;;;;2.57;66.11;100988.22;10168159;29;20128;-86
2023/01/26 11:12:38;;;;;;;9.18;4.75;;;;;;;2.64;65.77;100982.47;10149567;29;20076;-86
2023/01/26 11:17:50;;;;;;;10.70;4.20;;;;;;;2.85;65.53;100974.78;10172481;29;20401;-86
2023/01/26 11:23:16;;;;;;;6.88;4.00;;;;;;;2.81;65.56;100966.19;10142051;29;20115;-86
2023/01/26 11:28:27;;;;;;;8.43;4.00;;;;;;;2.89;64.84;100953.22;10142660;29;20247;-86
2023/01/26 11:33:45;;;;;;;8.60;4.68;;;;;;;3.23;64.36;100950.72;10138964;29;20075;-87
2023/01/26 11:39:00;;;;;;;10.23;4.97;;;;;;;3.27;64.02;100949.53;10143715;29;20048;-86
2023/01/26 11:44:27;;;;;;;10.70;4.55;;;;;;;3.15;64.86;100939.81;10122904;29;20041;-87
2023/01/26 11:49:47;;;;;;;11.40;5.50;;;;;;;3.20;64.81;100934.16;10136858;29;20068;-86
2023/01/26 11:55:22;;;;;;;13.93;5.82;;;;;;;3.36;63.91;100918.78;10097486;29;20044;-86
2023/01/26 12:00:36;;;;;;;12.35;5.18;;;;;;;3.31;64.31;100920.94;10110222;29;20052;-86
2023/01/26 12:05:45;;;;;;;9.85;5.40;;;;;;;3.24;64.67;100915.25;10106132;29;20040;-85
2023/01/26 12:10:58;;;;;;;13.38;5.20;;;;;;;3.45;64.30;100909.28;10093400;29;20044;-86
2023/01/26 12:16:12;;;;;;;11.77;4.90;;;;;;;3.28;64.08;100902.56;10114745;29;20140;-86
2023/01/26 12:21:14;;;;;;;13.48;6.00;;;;;;;3.34;64.30;100895.00;10120739;29;20097;-86
2023/01/26 12:26:19;;;;;;;13.40;6.05;;;;;;;3.51;63.98;100883.06;10104338;29;20116;-86
2023/01/26 12:31:40;;;;;;;16.40;6.32;;;;;;;3.53;63.87;100880.28;10120890;29;20048;-86
2023/01/26 12:37:03;;;;;;;12.18;5.13;;;;;;;3.43;64.27;100877.50;10116162;29;20488;-87
2023/01/26 12:42:39;;;;;;;13.77;5.63;;;;;;;3.36;64.79;100868.31;10121690;29;20159;-86
2023/01/26 12:48:13;;;;;;;14.13;5.28;;;;;;;3.43;64.59;100858.03;10130073;29;20048;-86
2023/01/26 12:53:20;;;;;;;15.85;5.85;;;;;;;3.34;64.48;100864.91;10109418;29;20056;-87
2023/01/26 12:58:28;;;;;;;16.35;6.35;;;;;;;3.32;64.84;100854.41;10107674;29;20147;-87
2023/01/26 13:03:34;;;;;;;17.58;8.45;;;;;;;3.45;64.67;100853.47;10138978;29;20139;-86
2023/01/26 13:08:35;;;;;;;20.27;7.25;;;;;;;3.71;64.12;100852.31;10127879;29;20063;-87
2023/01/26 13:13:57;;;;;;;17.98;7.63;;;;;;;3.66;64.52;100845.66;10118375;29;20036;-86
2023/01/26 13:19:01;;;;;;;19.17;7.43;;;;;;;3.66;64.47;100851.81;10124155;29;20457;-86
2023/01/26 13:24:15;;;;;;;20.00;7.30;;;;;;;3.80;64.26;100855.22;10105161;29;20460;-86
2023/01/26 13:29:31;;;;;;;21.80;8.75;;;;;;;3.91;63.89;100841.91;10120113;29;20056;-87
2023/01/26 13:34:43;;;;;;;20.65;7.47;;;;;;;3.93;64.25;100848.81;10119806;29;20052;-86
2023/01/26 13:39:50;;;;;;;16.77;7.32;;;;;;;3.81;64.43;100852.44;10125864;29;20104;-89
2023/01/26 13:45:03;;;;;;;19.65;6.88;;;;;;;3.83;64.16;100844.31;10103611;29;20135;-87
2023/01/26 13:50:31;;;;;;;25.88;9.27;;;;;;;3.99;64.01;100850.16;10118530;29;20056;-87
2023/01/26 13:55:32;;;;;;;19.98;7.68;;;;;;;4.04;64.28;100841.78;10142914;29;20080;-88
2023/01/26 14:00:34;;;;;;;20.42;7.72;;;;;;;4.08;64.14;100851.22;10109952;29;20056;-87
2023/01/26 14:05:36;;;;;;;21.92;7.60;;;;;;;4.00;64.52;100853.66;10118849;29;20053;-88
2023/01/26 14:10:42;;;;;;;21.27;7.60;;;;;;;3.97;64.27;100857.41;10132854;29;20063;-87
2023/01/26 14:15:55;;;;;;;19.40;7.97;;;;;;;4.02;63.92;100868.50;10121356;29;20056;-87
2023/01/26 14:21:03;;;;;;;24.17;8.80;;;;;;;4.06;63.87;100871.78;10146747;29;20099;-87
2023/01/26 14:26:19;;;;;;;22.70;8.10;;;;;;;4.11;63.64;100870.44;10126906;29;20563;-87
2023/01/26 14:31:25;;;;;;;27.80;8.45;;;;;;;4.08;64.34;100875.16;10143395;29;20060;-87
2023/01/26 14:36:31;;;;;;;22.85;8.10;;;;;;;3.98;64.53;100875.88;10125641;29;20083;-86
2023/01/26 14:41:36;;;;;;;21.15;7.53;;;;;;;3.98;64.01;100883.84;10138721;29;20148;-86
2023/01/26 14:47:11;;;;;;;20.30;7.35;;;;;;;4.02;64.24;100889.78;10109493;29;20066;-87
2023/01/26 14:52:25;;;;;;;20.17;7.85;;;;;;;3.92;64.61;100886.16;10127874;29;20362;-87
2023/01/26 14:57:29;;;;;;;26.15;11.20;;;;;;;3.94;64.87;100877.09;10117251;29;20048;-87
2023/01/26 15:02:37;;;;;;;20.90;9.35;;;;;;;4.04;64.65;100876.38;10134343;29;20064;-87
2023/01/26 15:07:46;;;;;;;23.27;9.70;;;;;;;4.08;64.64;100872.50;10131466;29;20112;-86
2023/01/26 15:12:56;;;;;;;22.42;10.10;;;;;;;4.10;64.54;100871.41;10131541;29;20072;-87
2023/01/26 15:18:02;;;;;;;27.33;8.80;;;;;;;3.94;65.15;100878.91;10122499;29;20075;-87
2023/01/26 15:23:25;;;;;;;23.55;8.60;;;;;;;3.90;65.14;100878.28;10118677;29;20067;-87
2023/01/26 15:28:27;;;;;;;24.88;8.98;;;;;;;3.85;65.34;100863.66;10116582;29;20072;-87
2023/01/26 15:33:38;;;;;;;27.23;9.40;;;;;;;3.75;65.45;100861.75;10161037;29;20053;-87
2023/01/26 15:38:40;;;;;;;24.50;8.38;;;;;;;3.86;65.21;100860.88;10131282;29;20120;-87
2023/01/26 15:43:41;;;;;;;28.38;8.57;;;;;;;3.90;65.65;100867.66;10132211;29;20083;-87
2023/01/26 15:48:43;;;;;;;28.27;10.45;;;;;;;3.98;65.32;100867.91;10143097;29;20052;-86
2023/01/26 15:53:45;;;;;;;24.90;9.40;;;;;;;3.95;65.52;100867.31;10160535;29;20070;-87
2023/01/26 15:58:46;;;;;;;25.95;10.95;;;;;;;3.94;66.18;100870.94;10128437;29;20051;-86
2023/01/26 16:03:49;;;;;;;29.90;10.80;;;;;;;3.92;65.98;100873.69;10173649;23;20374;-63
2023/01/26 16:08:52;;;;;;;28.63;8.63;;;;;;;3.85;65.96;100861.88;10226914;28;20098;-64
2023/01/26 16:13:55;;;;;;;26.52;8.85;;;;;;;3.76;66.01;100871.41;10236468;28;20142;-62
2023/01/26 16:19:03;;;;;;;32.10;10.52;;;;;;;3.61;66.90;100864.59;10238649;28;20126;-62
2023/01/26 16:24:05;;;;;;;35.05;10.00;;;;;;;3.46;67.06;100860.47;10242797;28;20055;-62
2023/01/26 16:29:06;;;;;;;27.73;11.05;;;;;;;3.51;67.35;100864.47;10238402;28;20449;-62
2023/01/26 16:34:09;;;;;;;27.00;9.70;;;;;;;3.52;67.35;100868.81;10241658;28;20102;-62
2023/01/26 16:39:10;;;;;;;36.50;10.52;;;;;;;3.51;67.43;100866.28;10246786;28;20394;-61
2023/01/26 16:44:14;;;;;;;29.13;10.50;;;;;;;3.47;67.60;100864.81;10236901;28;20051;-61
2023/01/26 16:49:16;;;;;;;32.58;11.05;;;;;;;3.49;67.41;100857.56;10237238;28;20055;-62
2023/01/26 16:54:17;;;;;;;28.30;9.73;;;;;;;3.51;67.54;100855.66;10239744;28;20054;-62
2023/01/26 16:59:19;;;;;;;29.83;10.80;;;;;;;3.47;68.10;100862.16;10238918;28;20379;-60
2023/01/26 17:04:20;;;;;;;29.67;10.45;;;;;;;3.40;67.66;100861.78;10242998;28;20082;-61
2023/01/26 17:09:22;;;;;;;33.75;11.48;;;;;;;3.42;68.23;100862.53;10242093;28;20505;-61
2023/01/26 17:14:24;;;;;;;37.72;12.32;;;;;;;3.41;68.74;100862.63;10238074;28;20055;-60
2023/01/26 17:19:26;;;;;;;28.25;11.18;;;;;;;3.45;68.44;100864.09;10241792;28;20077;-60
2023/01/26 17:24:27;;;;;;;35.05;13.50;;;;;;;3.48;68.26;100864.72;10242067;28;20075;-61
2023/01/26 17:29:28;;;;;;;32.03;13.15;;;;;;;3.48;68.15;100856.75;10248308;28;20126;-61
2023/01/26 17:34:30;;;;;;;34.25;10.75;;;;;;;3.48;68.54;100869.19;10232990;28;20079;-61
2023/01/26 17:39:31;;;;;;;27.95;10.40;;;;;;;3.47;68.53;100878.09;10248281;28;20081;-60
2023/01/26 17:44:33;;;;;;;35.28;10.43;;;;;;;3.52;68.94;100878.63;10250507;28;20585;-60
2023/01/26 17:49:35;;;;;;;34.05;10.70;;;;;;;3.53;68.93;100877.63;10255573;28;20500;-61
2023/01/26 17:54:37;;;;;;;32.13;10.02;;;;;;;3.56;69.09;100872.94;10244437;28;20071;-60
2023/01/26 17:59:38;;;;;;;33.55;11.95;;;;;;;3.57;68.99;100884.41;10239760;28;20126;-60
2023/01/26 18:04:39;;;;;;;33.30;11.55;;;;;;;3.56;69.14;100880.06;10225994;28;20066;-60
2023/01/26 18:09:41;;;;;;;33.80;12.10;;;;;;;3.54;69.13;100888.16;10246203;28;20106;-60
2023/01/26 18:14:43;;;;;;;35.30;13.15;;;;;;;3.46;69.57;100887.06;10239459;28;20071;-61
2023/01/26 18:19:45;;;;;;;36.45;12.48;;;;;;;3.45;69.51;100888.84;10246407;28;20078;-60
2023/01/26 18:24:47;;;;;;;35.50;12.57;;;;;;;3.40;69.50;100892.81;10232819;28;20110;-60
2023/01/26 18:29:48;;;;;;;34.15;13.77;;;;;;;3.31;69.83;100889.91;10250402;28;20086;-60
2023/01/26 18:34:49;;;;;;;38.90;12.38;;;;;;;3.32;69.98;100896.91;10243178;28;20506;-60
2023/01/26 18:39:51;;;;;;;39.75;12.93;;;;;;;3.19;70.57;100893.47;10244219;28;20062;-60
2023/01/26 18:44:59;;;;;;;41.80;13.23;;;;;;;3.13;70.45;100891.28;10246298;28;20075;-60
2023/01/26 18:50:01;;;;;;;31.40;11.30;;;;;;;3.06;70.79;100898.00;10242016;28;20051;-60
2023/01/26 18:55:03;;;;;;;38.65;13.07;;;;;;;3.08;70.66;100906.69;10248867;28;20047;-60
2023/01/26 19:00:07;;;;;;;37.58;13.38;;;;;;;3.06;71.45;100898.88;10247185;28;20067;-60
2023/01/26 19:05:08;;;;;;;41.05;15.10;;;;;;;3.14;70.94;100903.59;10245883;28;20051;-60
2023/01/26 19:10:10;;;;;;;39.75;11.38;;;;;;;3.05;71.20;100901.63;10243445;28;20771;-60
2023/01/26 19:15:11;;;;;;;39.50;13.70;;;;;;;3.05;71.86;100898.97;10239332;28;20506;-60
2023/01/26 19:20:13;;;;;;;37.53;13.00;;;;;;;3.07;71.63;100897.06;10239316;28;20051;-60
2023/01/26 19:25:15;;;;;;;35.60;10.93;;;;;;;2.94;72.36;100887.34;10238687;28;20402;-60
2023/01/26 19:30:16;;;;;;;36.03;12.65;;;;;;;2.95;72.13;100883.72;10227211;28;20051;-59
2023/01/26 19:35:18;;;;;;;45.40;13.27;;;;;;;2.97;72.62;100880.97;10246919;28;20114;-59
2023/01/26 19:40:19;;;;;;;42.55;14.30;;;;;;;3.13;72.25;100886.81;10245552;28;20075;-59
2023/01/26 19:45:20;;;;;;;41.42;13.93;;;;;;;3.16;72.49;100883.94;10239142;28;20138;-59
2023/01/26 19:50:22;;;;;;;41.13;14.57;;;;;;;3.23;72.36;100889.63;10246110;28;20043;-58
2023/01/26 19:55:23;;;;;;;35.85;13.50;;;;;;;3.30;72.17;100884.72;10244463;28;20129;-59
2023/01/26 20:00:25;;;;;;;44.13;14.30;;;;;;;3.31;72.52;100878.44;10240865;28;20123;-59
2023/01/26 20:05:26;;;;;;;43.97;14.32;;;;;;;3.40;72.77;100866.25;10241917;28;20106;-59
2023/01/26 20:10:29;;;;;;;43.78;13.68;;;;;;;3.44;72.38;100878.34;10234018;28;20087;-59
2023/01/26 20:15:34;;;;;;;43.85;13.85;;;;;;;3.46;72.28;100871.94;10243476;28;20096;-60
2023/01/26 20:20:36;;;;;;;33.05;12.35;;;;;;;3.38;72.54;100874.34;10219585;28;20110;-59
2023/01/26 20:25:37;;;;;;;36.75;12.40;;;;;;;3.38;72.50;100874.34;10236303;28;20138;-59
2023/01/26 20:30:39;;;;;;;39.05;13.40;;;;;;;3.46;72.81;100871.94;10236579;28;20081;-58
2023/01/26 20:35:42;;;;;;;40.72;15.10;;;;;;;3.38;73.39;100863.72;10244325;28;20050;-58
2023/01/26 20:40:43;;;;;;;37.20;12.48;;;;;;;3.34;73.50;100867.59;10234330;28;20541;-58
2023/01/26 20:45:45;;;;;;;47.78;15.93;;;;;;;3.34;73.57;100867.59;10219529;28;20130;-59
2023/01/26 20:50:46;;;;;;;47.20;14.65;;;;;;;3.33;73.16;100866.72;10240697;28;20066;-59
2023/01/26 20:55:47;;;;;;;47.05;15.43;;;;;;;3.34;73.57;100855.13;10239942;28;20076;-59
2023/01/26 21:00:49;;;;;;;38.60;12.65;;;;;;;3.21;73.79;100856.19;10242629;28;20074;-60
2023/01/26 21:05:50;;;;;;;37.72;12.32;;;;;;;2.94;74.49;100850.19;10238291;28;20384;-59
2023/01/26 21:10:52;;;;;;;33.58;11.63;;;;;;;2.87;75.18;100842.78;10243248;28;20133;-59
2023/01/26 21:15:53;;;;;;;32.38;11.45;;;;;;;2.91;74.69;100837.13;10238555;28;20125;-59
2023/01/26 21:21:03;;;;;;;29.08;11.00;;;;;;;2.95;74.86;100832.44;10239066;28;20074;-59
2023/01/26 21:26:08;;;;;;;43.83;12.18;;;;;;;3.01;74.37;100833.78;10234424;28;20047;-59
2023/01/26 21:31:12;;;;;;;43.97;12.70;;;;;;;3.11;74.37;100818.84;10238170;28;20556;-59
2023/01/26 21:36:17;;;;;;;36.90;11.50;;;;;;;3.18;74.00;100820.06;10242212;28;20522;-59
2023/01/26 21:46:45;;;;;;;35.83;10.77;;;;;;;3.24;74.16;100819.59;10248011;28;20431;-59
2023/01/26 22:02:28;;;;;;;41.75;12.25;;;;;;;3.47;74.42;100809.00;10239314;28;20180;-59
2023/01/26 22:07:31;;;;;;;43.88;13.20;;;;;;;3.53;74.01;100814.69;10239839;28;20075;-60
2023/01/26 22:12:32;;;;;;;36.10;13.50;;;;;;;3.55;74.18;100818.09;10244267;28;20051;-59
2023/01/26 22:17:33;;;;;;;39.25;12.32;;;;;;;3.55;74.13;100820.75;10244751;28;20151;-59
2023/01/26 22:22:35;;;;;;;36.75;12.48;;;;;;;3.65;74.15;100815.53;10244237;28;20122;-59
2023/01/26 22:27:38;;;;;;;35.45;12.57;;;;;;;3.62;74.42;100822.94;10243789;28;20122;-59
2023/01/26 22:32:41;;;;;;;32.58;11.75;;;;;;;3.56;74.85;100821.59;10247456;28;20047;-59
2023/01/26 22:37:42;;;;;;;44.38;11.75;;;;;;;3.50;74.94;100816.75;10243876;28;20081;-59
2023/01/26 22:42:44;;;;;;;35.50;11.55;;;;;;;3.53;74.81;100820.00;10247716;28;20086;-59
2023/01/26 22:47:49;;;;;;;33.17;12.60;;;;;;;3.58;74.90;100823.16;10242760;28;20146;-59
2023/01/26 22:52:50;;;;;;;37.58;11.70;;;;;;;3.46;74.87;100824.13;10248210;28;20054;-59
2023/01/26 22:57:51;;;;;;;32.55;10.32;;;;;;;3.46;75.22;100824.13;10250894;28;20142;-59
2023/01/26 23:02:53;;;;;;;31.70;11.18;;;;;;;3.33;75.42;100813.56;10228397;28;20082;-59
2023/01/26 23:07:54;;;;;;;30.95;12.13;;;;;;;3.32;75.26;100809.25;10246904;28;20143;-59
2023/01/26 23:12:56;;;;;;;34.97;10.68;;;;;;;3.29;75.58;100805.97;10248589;28;20062;-61
2023/01/26 23:17:58;;;;;;;33.92;11.63;;;;;;;3.45;75.49;100793.19;10245755;28;20050;-59
2023/01/26 23:22:59;;;;;;;33.30;11.88;;;;;;;3.57;75.05;100791.38;10244166;28;20457;-59
2023/01/26 23:28:02;;;;;;;35.45;11.45;;;;;;;3.49;74.98;100799.94;10239277;28;20054;-59
2023/01/26 23:33:03;;;;;;;34.45;10.82;;;;;;;3.40;75.77;100795.38;10242468;28;20114;-59
2023/01/26 23:38:05;;;;;;;33.63;10.65;;;;;;;3.41;75.84;100798.84;10223607;28;20458;-58
2023/01/26 23:43:06;;;;;;;33.25;11.25;;;;;;;3.40;75.58;100798.03;10239880;28;20131;-58
2023/01/26 23:48:18;;;;;;;41.70;11.73;;;;;;;3.53;75.56;100787.28;10238428;28;20453;-59
2023/01/26 23:53:20;;;;;;;33.20;12.55;;;;;;;3.58;75.54;100791.25;10243791;28;20057;-60
2023/01/26 23:58:21;;;;;;;33.50;12.57;;;;;;;3.64;75.18;100794.41;10239534;28;20158;-59
